KOQT  Oak Ridge  Airport

Tennessee, United States

Add Bookmark
Status
Operational
Latitude Longitude
36° 1' 12" N 84° 13' 48" W
36.020000 -84.230000
Local (DST -4) UTC (GMT -5)
Mar 3, 2015 09:56 Mar 3, 2015 14:56
Sunrise-Sunset Local UTC
Begin Civil Twilight 06:36 11:36
Sunrise 07:02 12:02
Sunset 06:35 23:35
End Civil Twilight 07:00 00:00

Current Weather

METAR Observed IFR
KOQT 031438Z AUTO 00000KT 1 3/4SM BR SCT004 OVC010 05/04 A3022 Tue, Mar 3, 2015 @ 14:38 UTC
(18 Minutes ago)
Instrument Flight Rules
Wind Visibility Clouds Conditions
Calm 1 3/4 statute mile
  • Scattered at 400' AGL
  • Overcast at 1,000' AGL
  • Mist
Temperatures Readings Precipitation
Current Temp 5°C (41°F)
Dewpoint 4°C (39°F)
Humidity 93%
Altimeter 30.22"Hg
Sea Level Pressure 1023mb
Field Elevation 908.79'
Current Rain 0.02"

Additional weather within a 50nm radius of KOQT

Map ICAO Location
KTYS 17nm S (137°)
KGKT 35.4nm E (106°)
KMMI 40.6nm S (204°)
KCSV 41.7nm W (265°)
KMOR 42.5nm E (077°)
1A6 42.7nm N (034°)

24 Hour Weather History

Loading
-

24 Hour Weather Graphs

Loading
-

CheckWX.com is intended as a tool to help pilots better visualize weather data. It is not intended as a substitute for an official weather briefing obtained from a Flight Service Station. CheckWX.com does not meet the FAA requirements for an official pre-flight weather briefing. Therefore, it's important that pilots still call and obtain an official FSS pre-flight weather briefing.